Hovedside
METAR-TAF:

METAR-TAF

Lufthavner :

Sumburgh, Shetlandsøyene, Skottland

breddegrad: 59-53N, lengdegrad: 001-18W, høyde over havet: 5 m

Gjeldene værobservasjon

Denne rapporten ble laget for 28 minutter siden, klokken 07:50 UTC
Vind 4 kt fra Sør
Temperatur 5°C
Luftfuktighet 70%
Trykk 989 hPa
Sikt 10 km eller mer
Få skyer i en høyde av 2800 ft

METAR: EGPB 160750Z 19004KT 9999 FEW028 05/M00 Q0989

Tid: 08:18 (08:18 UTC)

Varsel

Denne rapporten ble laget for 3 timer og 21 minutter siden, klokken 04:57 UTC
Varsel gyldig fra 16. klokken 06 UTC til 16. klokken 15 UTC
Vind 10 kt fra Sørvest
Sikt 10 km eller mer
Spredte skyer i en høyde av 2500 ft
Blir
fra 16. klokken 11 UTC til 16. klokken 14 UTC
Vind 9 kt fra Sør-sørøst
Sannsynlighet 40% :
Midlertidig
fra 16. klokken 12 UTC til 16. klokken 15 UTC
Sikt: 6000 m
Brutte skyer i en høyde av 1200 ft
regnbyger

TAF: EGPB 160457Z 1606/1615 23010KT 9999 SCT025 BECMG 1611/1614 16009KT PROB40 TEMPO 1612/1615 6000 SHRA BKN012

Værobservasjoner og værvarsel for over 4000 flyplasser (METAR- og TAF-rapporter).

Tilgjengelige stasjoner er representert av de røde og gule prikkene på kartet.

Hold musepekeren over prikken for å se navnet på stasjonen.

Klikk så for å se værobservasjoner og -varsler.

For å forandre kartet kan du klikke på den grønne knappen med svart kryss for å zoome inn, på den grønne knappen med strek for å zoome ut, eller på de grønne pilene for å se tilstøtende kart.


METAR-TAF: